Home > Products > Valid Products > TAF

000
FTUS44 KLIX 182300 RRA
TAFBTR
TAF
KBTR 182340Z 1900/1924 05006KT P6SM OVC017
     FM191200 08006KT 4SM RA BR SCT007 OVC015
      TEMPO 1914/1918 1SM SHRA OVC007
     FM191800 05006KT 1SM SHRA BKN015=



000
FTUS44 KLIX 182300 RRA
TAFMSY
TAF
KMSY 182340Z 1900/1924 11005KT P6SM BKN022 BKN100 OVC250
      TEMPO 1900/1903 3SM SHRA BKN018 BKN025 BKN100
     FM191200 09008KT 4SM RA BR OVC015
      TEMPO 1914/1918 1SM SHRA BR OVC007
     FM191800 07007KT 2SM SHRA BKN015
      TEMPO 1918/1922 1SM SHRA BKN010=



000
FTUS44 KLIX 182300 RRA
TAFNEW
TAF
KNEW 182340Z 1900/1924 12007KT P6SM BKN100
      TEMPO 1900/1904 3SM SHRA BKN020
     FM190400 12007KT P6SM BKN030
     FM191200 09008KT 4SM RA BR OVC015
      TEMPO 1914/1918 1SM SHRA BR OVC007
     FM191800 07010KT 3SM SHRA BKN015
      TEMPO 1918/1922 1SM SHRA BKN010=



000
FTUS44 KLIX 182300 RRA
TAFNEW
TAF
KNEW 182340Z 1900/1924 12007KT P6SM BKN100
      TEMPO 1900/1904 3SM SHRA BKN020
     FM190400 12007KT P6SM BKN030
     FM191200 09008KT 4SM RA BR OVC015
      TEMPO 1914/1918 1SM SHRA BR OVC007
     FM191800 07010KT 3SM SHRA BKN015
      TEMPO 1918/1922 1SM SHRA BKN010=



000
FTUS44 KLIX 182300 RRA
TAFGPT
TAF
KGPT 182340Z 1900/1924 07004KT P6SM BKN070
     FM190800 06006KT P6SM BKN035
     FM191400 06008KT 5SM BR OVC020
      TEMPO 1914/1918 2SM SHRA BR OVC010=



000
FTUS44 KLIX 182300 RRA
TAFMCB
TAF
KMCB 182340Z 1900/1924 00000KT P6SM SCT004 BKN027 OVC035
      TEMPO 1900/1904 BKN004
     FM190400 00000KT 5SM BR BKN020
      TEMPO 1908/1912 2SM SHRA BR BKN010
     FM191200 08006KT 4SM RA BR SCT007 OVC015
      TEMPO 1914/1918 1SM SHRA BR OVC007
     FM191800 08007KT 1SM SHRA BKN010=



000
FTUS44 KLIX 182100 AAB
TAFMCB
TAF AMD
KMCB 182114Z 1821/1918 02007KT 4SM -RA BR SCT008 BKN040 OVC080
      TEMPO 1821/1824 2SM -RA BR BKN012
     FM190000 09005KT P6SM OVC015 PROB30 1906/1912 3SM SHRA OVC015
     FM191200 08006KT 4SM RA BR SCT007 OVC015
      TEMPO 1914/1918 1SM SHRA BR OVC007=



000
FTUS44 KLIX 181900 AAA
TAFBTR
TAF AMD
KBTR 181927Z 1819/1918 13005KT P6SM BKN020 BKN050 OVC070
     FM182300 09005KT P6SM OVC030 PROB30 1906/1912 3SM SHRA OVC015
     FM191200 08006KT 4SM RA BR SCT007 OVC015
      TEMPO 1914/1918 1SM SHRA OVC007=



000
FTUS44 KLIX 181800 AAA
TAFMCB
TAF AMD
KMCB 181854Z 1819/1918 13004KT P6SM BKN030 OVC060
      TEMPO 1820/1823 5SM -RA BR BKN020
     FM182300 09005KT P6SM OVC030 PROB30 1906/1912 3SM SHRA OVC015
     FM191200 08006KT 4SM RA BR SCT007 OVC015
      TEMPO 1914/1918 1SM SHRA BR OVC007=



000
FTUS44 KLIX 181700 RRA
TAFGPT
TAF
KGPT 181751Z 1818/1918 12004KT P6SM SCT050 BKN090
     FM182000 12005KT P6SM BKN090
     FM190800 06006KT P6SM BKN035 PROB30 1908/1914 3SM SHRA BR
      BKN015
     FM191400 06008KT 5SM BR OVC020
      TEMPO 1914/1918 2SM SHRA BR OVC010=



000
FTUS44 KLIX 181700 RRA
TAFBTR
TAF
KBTR 181751Z 1818/1918 13004KT P6SM BKN035
     FM182300 09005KT P6SM OVC030 PROB30 1906/1912 3SM SHRA OVC015
     FM191200 08006KT 4SM RA BR SCT007 OVC015
      TEMPO 1914/1918 1SM SHRA OVC007=



000
FTUS44 KLIX 181700 RRA
TAFMCB
TAF
KMCB 181751Z 1818/1918 00000KT P6SM BKN035
     FM182300 09005KT P6SM OVC030 PROB30 1906/1912 3SM SHRA OVC015
     FM191200 08006KT 4SM RA BR SCT007 OVC015
      TEMPO 1914/1918 1SM SHRA BR OVC007=



000
FTUS44 KLIX 181700 RRA
TAFMSY
TAF
KMSY 181751Z 1818/1918 14008KT P6SM SCT030 BKN080
     FM190000 09006KT P6SM BKN030 PROB30 1906/1912 3SM SHRA BKN015
     FM191200 09008KT 4SM RA BR OVC015
      TEMPO 1914/1918 1SM SHRA BR OVC007=



000
FTUS44 KLIX 181700 RRA
TAFNEW
TAF
KNEW 181751Z 1818/1918 12012KT P6SM SCT030 BKN080
     FM190000 09006KT P6SM BKN030 PROB30 1906/1912 3SM SHRA BKN015
     FM191200 09008KT 4SM RA BR OVC015
      TEMPO 1914/1918 1SM SHRA BR OVC007=



000
FTUS44 KLIX 181700 RRA
TAFNEW
TAF
KNEW 181751Z 1818/1918 12012KT P6SM SCT030 BKN080
     FM190000 09006KT P6SM BKN030 PROB30 1906/1912 3SM SHRA BKN015
     FM191200 09008KT 4SM RA BR OVC015
      TEMPO 1914/1918 1SM SHRA BR OVC007=



000
FTUS44 KLIX 181400 AAB
TAFMSY
TAF AMD
KMSY 181442Z 1815/1912 06008KT P6SM BKN020 BKN180
      TEMPO 1815/1817 SCT025 BKN180
     FM181700 12007KT P6SM BKN040
     FM190800 10007KT P6SM OVC025=



000
FTUS44 KLIX 181400 AAA
TAFMSY
TAF AMD
KMSY 181435Z 1815/1912 06008KT P6SM SCT021 BKN180
     FM181700 12007KT P6SM BKN040
     FM190800 10007KT P6SM OVC025=



000
FTUS44 KLIX 181100
TAFGPT
TAF
KGPT 181129Z 1812/1912 02003KT P6SM SKC
     FM181500 08005KT P6SM BKN040
     FM181600 09005KT P6SM SCT040
     FM182000 12005KT P6SM BKN040=



000
FTUS44 KLIX 181100
TAFMSY
TAF
KMSY 181129Z 1812/1912 10004KT P6SM BKN250
     FM181700 12005KT P6SM BKN040
     FM190800 10007KT P6SM OVC025=



000
FTUS44 KLIX 181100
TAFNEW
TAF
KNEW 181129Z 1812/1912 07007KT P6SM SCT250
     FM182000 11006KT P6SM BKN040
     FM190800 09008KT P6SM OVC025=



000
FTUS44 KLIX 181100
TAFNEW
TAF
KNEW 181129Z 1812/1912 07007KT P6SM SCT250
     FM182000 11006KT P6SM BKN040
     FM190800 09008KT P6SM OVC025=



000
FTUS44 KLIX 181100
TAFMCB
TAF
KMCB 181129Z 1812/1912 00000KT P6SM OVC100
     FM182300 07004KT P6SM OVC025 PROB30 1900/1904 -SHRA=



000
FTUS44 KLIX 181100
TAFBTR
TAF
KBTR 181129Z 1812/1912 06003KT P6SM BKN030
     FM181300 VRB03KT P6SM BKN040
     FM190000 08005KT P6SM OVC025 PROB30 1900/1904 -SHRA=



000
FTUS44 KLIX 180600 RRA
TAFNEW
TAF
KNEW 180602Z 1806/1906 10006KT P6SM SCT250
     FM181500 10005KT P6SM BKN100=



000
FTUS44 KLIX 180600 RRA
TAFBTR
TAF
KBTR 180602Z 1806/1906 11004KT P6SM BKN200
     FM182200 11005KT P6SM BKN025=



000
FTUS44 KLIX 180600 RRA
TAFMCB
TAF
KMCB 180602Z 1806/1906 VRB03KT P6SM BKN080
     FM190500 09005KT P6SM OVC025=



000
FTUS44 KLIX 180600 RRA
TAFMSY
TAF
KMSY 180602Z 1806/1906 11005KT P6SM SCT250
     FM181400 09005KT P6SM BKN100=



000
FTUS44 KLIX 180600 RRA
TAFNEW
TAF
KNEW 180602Z 1806/1906 10006KT P6SM SCT250
     FM181500 10005KT P6SM BKN100=



000
FTUS44 KLIX 180600 RRA
TAFGPT
TAF
KGPT 180602Z 1806/1906 07005KT P6SM SCT250
     FM182000 11005KT P6SM BKN080=



000
FTUS44 KLIX 172300
TAFMSY
TAF
KMSY 172329Z 1800/1824 09004KT P6SM SCT250
     FM181400 09005KT P6SM BKN100=



000
FTUS44 KLIX 172300
TAFNEW
TAF
KNEW 172329Z 1800/1824 09005KT P6SM SCT250
     FM181500 10005KT P6SM BKN100=



000
FTUS44 KLIX 172300
TAFBTR
TAF
KBTR 172329Z 1800/1824 08004KT P6SM SCT080
     FM180900 VRB03KT P6SM BKN090
     FM182200 11005KT P6SM BKN025=



000
FTUS44 KLIX 172300
TAFNEW
TAF
KNEW 172329Z 1800/1824 09005KT P6SM SCT250
     FM181500 10005KT P6SM BKN100=



000
FTUS44 KLIX 172300
TAFGPT
TAF
KGPT 172329Z 1800/1824 05004KT P6SM SCT250
     FM181700 12005KT P6SM SCT090
     FM182000 11005KT P6SM BKN080=



000
FTUS44 KLIX 172300
TAFMCB
TAF
KMCB 172329Z 1800/1824 05004KT P6SM SCT250
     FM180300 08004KT P6SM BKN080=



000
FTUS44 KLIX 171700
TAFMSY
TAF
KMSY 171736Z 1718/1818 04008KT P6SM BKN250
     FM180500 12004KT P6SM BKN250
     FM181500 10006KT P6SM BKN100=



000
FTUS44 KLIX 171700
TAFBTR
TAF
KBTR 171736Z 1718/1818 07005KT P6SM BKN250
     FM181000 12004KT P6SM BKN090=



000
FTUS44 KLIX 171700
TAFMCB
TAF
KMCB 171736Z 1718/1818 05005KT P6SM BKN250
     FM180500 00000KT P6SM BKN080=



000
FTUS44 KLIX 171700
TAFNEW
TAF
KNEW 171736Z 1718/1818 07007KT P6SM BKN250
     FM180500 12005KT P6SM BKN250
     FM181600 10006KT P6SM BKN100=



000
FTUS44 KLIX 171700
TAFGPT
TAF
KGPT 171736Z 1718/1818 05005KT P6SM BKN250
     FM172300 VRB03KT P6SM BKN250=



000
FTUS44 KLIX 171100
TAFNEW
TAF
KNEW 171136Z 1712/1812 04014KT P6SM SKC
     FM171400 06009KT P6SM SKC
     FM180000 10005KT P6SM FEW250=



000
FTUS44 KLIX 171100
TAFMSY
TAF
KMSY 171136Z 1712/1812 05007KT P6SM SKC
     FM180400 12005KT P6SM SCT250=



000
FTUS44 KLIX 171100
TAFMCB
TAF
KMCB 171136Z 1712/1812 00000KT P6SM SKC
     FM171900 VRB04KT P6SM FEW250
     FM180500 VRB03KT P6SM BKN070=



000
FTUS44 KLIX 171100
TAFNEW
TAF
KNEW 171136Z 1712/1812 04014KT P6SM SKC
     FM171400 06009KT P6SM SKC
     FM180000 10005KT P6SM FEW250=



000
FTUS44 KLIX 171100
TAFBTR
TAF
KBTR 171136Z 1712/1812 00000KT P6SM SKC
     FM172000 08004KT P6SM FEW250=



000
FTUS44 KLIX 171100
TAFGPT
TAF
KGPT 171136Z 1712/1812 01005KT P6SM SKC
     FM171400 04006KT P6SM SKC
     FM172000 07004KT P6SM FEW250=



000
FTUS44 KLIX 170500
TAFMSY
TAF
KMSY 170531Z 1706/1806 36009KT P6SM SKC
     FM171600 06007KT P6SM SKC
     FM180400 12005KT P6SM SCT250=



000
FTUS44 KLIX 170500
TAFMCB
TAF
KMCB 170531Z 1706/1806 36005KT P6SM SKC
     FM172300 06004KT P6SM SCT250
     FM180500 VRB03KT P6SM BKN070=



000
FTUS44 KLIX 170500
TAFBTR
TAF
KBTR 170531Z 1706/1806 01004KT P6SM SKC
     FM172100 08004KT P6SM SCT250=



000
FTUS44 KLIX 170500
TAFNEW
TAF
KNEW 170531Z 1706/1806 01016KT P6SM SKC
     FM171200 04009KT P6SM SKC
     FM180000 10005KT P6SM FEW250=



000
FTUS44 KLIX 170500
TAFGPT
TAF
KGPT 170531Z 1706/1806 36007KT P6SM SKC
     FM171400 04008KT P6SM SKC
     FM172000 07004KT P6SM FEW250=



000
FTUS44 KLIX 170500
TAFNEW
TAF
KNEW 170531Z 1706/1806 01016KT P6SM SKC
     FM171200 04009KT P6SM SKC
     FM180000 10005KT P6SM FEW250=



000
FTUS44 KLIX 162300
TAFBTR
TAF
KBTR 162320Z 1700/1724 33004KT P6SM SKC
     FM172100 08004KT P6SM SCT250=



000
FTUS44 KLIX 162300
TAFMCB
TAF
KMCB 162320Z 1700/1724 34005KT P6SM SKC
     FM172300 06004KT P6SM SCT250=



000
FTUS44 KLIX 162300
TAFNEW
TAF
KNEW 162320Z 1700/1724 32009KT P6SM SKC
     FM170500 36011KT P6SM SKC
     FM171200 04009KT P6SM SKC=



000
FTUS44 KLIX 162300
TAFNEW
TAF
KNEW 162320Z 1700/1724 32009KT P6SM SKC
     FM170500 36011KT P6SM SKC
     FM171200 04009KT P6SM SKC=



000
FTUS44 KLIX 162300
TAFGPT
TAF
KGPT 162320Z 1700/1724 32006KT P6SM SKC
     FM170600 36005KT P6SM SKC
     FM171400 04006KT P6SM SKC
     FM172000 10005KT P6SM FEW250=



000
FTUS44 KLIX 162300
TAFMSY
TAF
KMSY 162320Z 1700/1724 34007KT P6SM SKC
     FM171000 03006KT P6SM SKC
     FM172200 09005KT P6SM FEW250=



000
FTUS44 KLIX 161700
TAFBTR
TAF
KBTR 161731Z 1618/1718 30011KT P6SM FEW250
     FM170000 33004KT P6SM SKC
     FM171400 05004KT P6SM FEW250=



000
FTUS44 KLIX 161700
TAFNEW
TAF
KNEW 161731Z 1618/1718 31009KT P6SM FEW250
     FM170400 35008KT P6SM SKC
     FM171000 03008KT P6SM SKC=



000
FTUS44 KLIX 161700
TAFGPT
TAF
KGPT 161731Z 1618/1718 32010KT P6SM FEW250
     FM170000 34004KT P6SM SKC=



000
FTUS44 KLIX 161700
TAFNEW
TAF
KNEW 161731Z 1618/1718 31009KT P6SM FEW250
     FM170400 35008KT P6SM SKC
     FM171000 03008KT P6SM SKC=



000
FTUS44 KLIX 161700
TAFMCB
TAF
KMCB 161731Z 1618/1718 32011KT P6SM FEW250
     FM170000 33004KT P6SM SKC=



000
FTUS44 KLIX 161700
TAFMSY
TAF
KMSY 161731Z 1618/1718 32009KT P6SM FEW250
     FM170600 01006KT P6SM SKC=



000
FTUS44 KLIX 161100
TAFNEW
TAF
KNEW 161140Z 1612/1712 31013KT P6SM SCT040 BKN070 BKN080
     FM161330 32013KT P6SM SCT060
     FM161700 33010KT P6SM SKC
     FM170300 35008KT P6SM SKC=



000
FTUS44 KLIX 161100
TAFBTR
TAF
KBTR 161140Z 1612/1712 32006KT P6SM SKC
     FM162000 35006KT P6SM SKC=



000
FTUS44 KLIX 161100
TAFNEW
TAF
KNEW 161140Z 1612/1712 31013KT P6SM SCT040 BKN070 BKN080
     FM161330 32013KT P6SM SCT060
     FM161700 33010KT P6SM SKC
     FM170300 35008KT P6SM SKC=



000
FTUS44 KLIX 161100
TAFMCB
TAF
KMCB 161140Z 1612/1712 30007KT P6SM SKC
     FM161800 35006KT P6SM SKC=



000
FTUS44 KLIX 161100
TAFGPT
TAF
KGPT 161140Z 1612/1712 30009KT P6SM SCT050 OVC060
     FM161330 31011KT P6SM BKN050
     FM161730 33009KT P6SM SKC
     FM170300 35006KT P6SM SKC=



000
FTUS44 KLIX 161100
TAFMSY
TAF
KMSY 161140Z 1612/1712 33010KT P6SM BKN040 BKN070
     FM161630 33011KT P6SM SKC
     FM170300 35007KT P6SM SKC=



000
FTUS44 KLIX 160500
TAFMSY
TAF
KMSY 160520Z 1606/1706 24011KT P6SM SCT035 BKN060
      TEMPO 1608/1610 26012G22KT 3SM -SHRA BKN030
     FM161000 28012KT P6SM BKN050
     FM161200 32011KT P6SM SCT250
     FM162000 32007KT P6SM SKC=



000
FTUS44 KLIX 160500
TAFNEW
TAF
KNEW 160520Z 1606/1706 22013KT P6SM SCT030 BKN060
      TEMPO 1608/1610 26015G25KT 3SM -SHRA BKN030
     FM161000 28013KT P6SM BKN040
     FM161200 31013KT P6SM SCT250
     FM162000 31009KT P6SM SKC
     FM170400 35008KT P6SM SKC=



000
FTUS44 KLIX 160500
TAFBTR
TAF
KBTR 160520Z 1606/1706 28010KT P6SM BKN015
     FM160800 29008KT P6SM BKN040
     FM161000 30006KT P6SM SCT250=



000
FTUS44 KLIX 160500
TAFMCB
TAF
KMCB 160520Z 1606/1706 27008KT P6SM BKN040
     FM161000 28007KT P6SM SCT040
     FM161200 30006KT P6SM FEW250=



000
FTUS44 KLIX 160500
TAFNEW
TAF
KNEW 160520Z 1606/1706 22013KT P6SM SCT030 BKN060
      TEMPO 1608/1610 26015G25KT 3SM -SHRA BKN030
     FM161000 28013KT P6SM BKN040
     FM161200 31013KT P6SM SCT250
     FM162000 31009KT P6SM SKC
     FM170400 35008KT P6SM SKC=



000
FTUS44 KLIX 160500
TAFGPT
TAF
KGPT 160520Z 1606/1706 22009KT P6SM SCT045
     FM160900 26012KT P6SM BKN040
      TEMPO 1610/1612 25012G22KT 4SM -SHRA BKN030
     FM161200 29011KT P6SM BKN040
     FM161400 30011KT P6SM SCT250
     FM170400 34008KT P6SM SKC=



000
FTUS44 KLIX 160400 AAB
TAFBTR
TAF AMD
KBTR 160457Z 1605/1624 26009KT P6SM OVC018
      TEMPO 1605/1606 3SM -SHRA
     FM161000 28008KT P6SM SCT025
     FM162200 33004KT P6SM SKC=



000
FTUS44 KLIX 160400 AAB
TAFBTR
TAF AMD
KBTR 160457Z 1605/1624 26009KT P6SM OVC018
      TEMPO 1605/1606 3SM -SHRA
     FM161000 28008KT P6SM SCT025
     FM162200 33004KT P6SM SKC=



000
FTUS44 KLIX 160300 AAA
TAFMCB
TAF AMD
KMCB 160301Z 1603/1624 22009KT P6SM BKN017
      TEMPO 1603/1605 3SM -SHRA
     FM160600 25009KT P6SM BKN019
     FM160900 29008KT P6SM SCT025
     FM162300 33005KT P6SM SKC=



000
FTUS44 KLIX 160300 AAA
TAFBTR
TAF AMD
KBTR 160300Z 1603/1624 22011KT P6SM BKN017
      TEMPO 1603/1605 5SM -SHRA
     FM160500 26009KT P6SM BKN020
     FM160800 28008KT P6SM SCT025
     FM162200 33004KT P6SM SKC=



    US Dept of Commerce
    National Oceanic and Atmospheric Administration
    National Weather Service
    1325 East West Highway
    Silver Spring, MD 20910
    Page Author: NWS Internet Services Team
Disclaimer
Information Quality
Credits
Glossary
Privacy Policy
Freedom of Information Act (FOIA)
About Us
Career Opportunities